createdAt,value
2022-12-27T00:01:46.380Z,32.00
2022-12-27T00:04:50.545Z,32.00
2022-12-27T00:07:53.209Z,28.75
2022-12-27T00:10:56.241Z,31.50
2022-12-27T00:14:03.190Z,27.75
2022-12-27T00:17:06.997Z,36.75
2022-12-27T00:20:12.042Z,25.75
2022-12-27T00:23:15.167Z,32.75
2022-12-27T00:26:23.485Z,32.75
2022-12-27T00:29:27.149Z,29.50
2022-12-27T00:32:29.804Z,31.00
2022-12-27T00:35:32.820Z,26.00
2022-12-27T00:38:36.107Z,31.50
2022-12-27T00:41:39.097Z,32.00
2022-12-27T00:44:43.538Z,31.50
2022-12-27T00:47:48.653Z,31.75
2022-12-27T00:50:51.636Z,31.75
2022-12-27T00:53:56.136Z,30.00
2022-12-27T00:56:58.768Z,27.75
2022-12-27T01:00:07.924Z,27.25
2022-12-27T01:03:12.627Z,30.25
2022-12-27T01:06:18.417Z,26.50
2022-12-27T01:09:21.066Z,32.25
2022-12-27T01:12:24.675Z,24.00
2022-12-27T01:15:27.481Z,21.50
2022-12-27T01:18:30.744Z,30.75
2022-12-27T01:21:33.487Z,30.75
2022-12-27T01:24:36.828Z,31.00
2022-12-27T01:27:39.652Z,25.50
2022-12-27T01:30:42.742Z,28.25
2022-12-27T01:33:45.650Z,29.25
2022-12-27T01:36:48.789Z,19.00
2022-12-27T01:39:51.398Z,26.00
2022-12-27T01:42:55.900Z,28.25
2022-12-27T01:45:59.028Z,29.50
2022-12-27T01:49:05.113Z,26.50
2022-12-27T01:52:10.362Z,30.50
2022-12-27T01:55:47.052Z,23.00
2022-12-27T01:58:59.784Z,27.25
2022-12-27T02:02:04.355Z,26.00
2022-12-27T02:05:07.663Z,26.75
2022-12-27T02:08:33.133Z,25.75
2022-12-27T02:11:52.335Z,19.50
2022-12-27T02:14:56.476Z,26.00
2022-12-27T02:17:59.157Z,26.25
2022-12-27T02:21:11.716Z,26.25
2022-12-27T02:24:14.320Z,21.75
2022-12-27T02:27:36.079Z,24.75
2022-12-27T02:30:38.914Z,20.00
2022-12-27T02:33:45.974Z,25.00
2022-12-27T02:36:49.994Z,31.25
2022-12-27T02:39:54.471Z,26.25
2022-12-27T02:43:15.845Z,31.75
2022-12-27T02:46:46.037Z,34.25
2022-12-27T02:50:07.216Z,31.00
2022-12-27T02:53:40.918Z,10.50
2022-12-27T02:57:10.016Z,3.25
2022-12-27T03:00:40.669Z,3.75
2022-12-27T03:04:12.107Z,1.00
2022-12-27T03:07:39.156Z,1.50
2022-12-27T03:11:10.411Z,2.00
2022-12-27T03:14:40.181Z,1.00
2022-12-27T03:17:52.571Z,1.00
2022-12-27T03:21:16.821Z,2.50
2022-12-27T03:24:41.742Z,1.00
2022-12-27T03:28:06.830Z,2.00
2022-12-27T03:31:42.097Z,2.00
2022-12-27T03:34:51.550Z,1.00
2022-12-27T03:38:04.330Z,2.00
2022-12-27T03:41:31.078Z,1.00
2022-12-27T03:44:34.938Z,1.25
2022-12-27T03:47:43.687Z,1.00
2022-12-27T03:51:05.366Z,1.00
2022-12-27T03:54:26.603Z,1.00
2022-12-27T03:57:30.210Z,1.00
2022-12-27T04:00:33.638Z,1.75
2022-12-27T04:03:36.278Z,1.00
2022-12-27T04:06:39.598Z,0.00
2022-12-27T04:10:01.853Z,2.00
2022-12-27T04:13:23.713Z,1.75
2022-12-27T04:16:44.878Z,1.00
2022-12-27T04:20:06.369Z,1.25
2022-12-27T04:23:27.859Z,0.00
2022-12-27T04:26:49.164Z,1.00
2022-12-27T04:30:10.350Z,2.00
2022-12-27T04:33:31.970Z,1.00
2022-12-27T04:36:34.686Z,1.75
2022-12-27T04:39:37.708Z,1.00
2022-12-27T04:42:58.789Z,1.00
2022-12-27T04:46:20.440Z,0.00
2022-12-27T04:49:43.944Z,1.00
2022-12-27T04:53:06.740Z,1.00
2022-12-27T04:56:09.472Z,0.50
2022-12-27T04:59:31.007Z,1.00
2022-12-27T05:02:34.208Z,1.50
2022-12-27T05:05:38.652Z,1.00
2022-12-27T05:09:00.154Z,2.00
2022-12-27T05:12:21.915Z,1.25
2022-12-27T05:15:24.436Z,1.25
2022-12-27T05:18:28.109Z,2.00
2022-12-27T05:21:31.018Z,1.00
2022-12-27T05:24:52.478Z,2.00
2022-12-27T05:27:55.976Z,0.67
2022-12-27T05:31:06.887Z,0.67
2022-12-27T05:34:09.610Z,3.67
2022-12-27T05:37:13.933Z,2.00
2022-12-27T05:40:17.004Z,2.00
2022-12-27T05:43:20.143Z,0.67
2022-12-27T05:46:23.171Z,2.00
2022-12-27T05:49:26.529Z,2.00
2022-12-27T05:52:33.081Z,3.33
2022-12-27T05:55:40.145Z,1.00
2022-12-27T05:58:43.527Z,2.00
2022-12-27T06:01:47.357Z,4.00
2022-12-27T06:04:50.090Z,1.33
2022-12-27T06:07:53.455Z,2.00
2022-12-27T06:11:07.199Z,7.67
2022-12-27T06:14:10.435Z,8.00
2022-12-27T06:17:13.168Z,5.00
2022-12-27T06:20:16.312Z,4.00
2022-12-27T06:23:19.017Z,4.00
2022-12-27T06:26:25.396Z,4.00
2022-12-27T06:29:28.103Z,5.67
2022-12-27T06:32:32.444Z,5.00
2022-12-27T06:35:35.063Z,5.00
2022-12-27T06:38:38.875Z,4.00
2022-12-27T06:41:41.576Z,5.00
2022-12-27T06:44:44.949Z,5.00
2022-12-27T06:47:47.611Z,6.33
2022-12-27T06:50:51.101Z,4.00
2022-12-27T06:53:53.782Z,6.33
2022-12-27T06:56:57.420Z,7.00
2022-12-27T07:00:00.167Z,10.33
2022-12-27T07:03:04.396Z,11.00
2022-12-27T07:06:08.670Z,7.33
2022-12-27T07:09:12.210Z,6.67
2022-12-27T07:12:14.933Z,4.33
2022-12-27T07:15:18.200Z,4.00
2022-12-27T07:18:20.768Z,2.67
2022-12-27T07:21:25.956Z,4.00
2022-12-27T07:24:28.504Z,4.33
2022-12-27T07:27:34.949Z,4.00
2022-12-27T07:30:40.357Z,4.00
2022-12-27T07:33:44.297Z,5.33
2022-12-27T07:36:47.272Z,4.00
2022-12-27T07:39:50.320Z,5.00
2022-12-27T07:42:53.028Z,0.67
2022-12-27T07:45:56.140Z,4.33
2022-12-27T07:48:59.363Z,4.33
2022-12-27T07:52:03.055Z,5.00
2022-12-27T07:55:06.202Z,4.00
2022-12-27T07:58:09.599Z,4.00
2022-12-27T08:01:13.563Z,5.00
2022-12-27T08:04:17.264Z,5.00
2022-12-27T08:07:20.540Z,5.67
2022-12-27T08:10:23.970Z,7.00
2022-12-27T08:13:27.285Z,8.00
2022-12-27T08:16:31.155Z,4.00
2022-12-27T08:19:34.643Z,6.33
2022-12-27T08:22:38.240Z,5.67
2022-12-27T08:25:44.841Z,9.33
2022-12-27T08:28:52.758Z,13.00
2022-12-27T08:31:55.399Z,10.33
2022-12-27T08:35:17.922Z,2.00
2022-12-27T08:38:21.632Z,7.33
2022-12-27T08:41:25.028Z,5.00
2022-12-27T08:44:27.785Z,8.00
2022-12-27T08:47:31.061Z,11.33
2022-12-27T08:50:33.892Z,6.33
2022-12-27T08:53:37.077Z,8.00
2022-12-27T08:56:39.850Z,10.00
2022-12-27T08:59:43.458Z,14.33
2022-12-27T09:02:47.302Z,17.00
2022-12-27T09:05:50.760Z,20.00
2022-12-27T09:08:54.983Z,16.33
2022-12-27T09:11:58.090Z,15.00
2022-12-27T09:15:00.834Z,17.00
2022-12-27T09:18:05.014Z,17.00
2022-12-27T09:21:11.753Z,11.33
2022-12-27T09:24:15.401Z,11.67
2022-12-27T09:27:19.532Z,13.33
2022-12-27T09:30:23.207Z,11.33
2022-12-27T09:33:26.215Z,11.67
2022-12-27T09:36:30.395Z,12.00
2022-12-27T09:39:33.250Z,10.67
2022-12-27T09:43:16.228Z,11.67
2022-12-27T09:46:26.975Z,11.00
2022-12-27T09:49:38.531Z,10.00
2022-12-27T09:52:50.319Z,11.33
2022-12-27T09:55:56.020Z,11.00
2022-12-27T09:59:06.319Z,11.00
2022-12-27T10:02:27.385Z,9.33
2022-12-27T10:05:34.601Z,8.67
2022-12-27T10:09:21.294Z,10.00
2022-12-27T10:12:42.700Z,13.67
2022-12-27T10:15:54.657Z,7.00
2022-12-27T10:19:42.520Z,10.33
2022-12-27T10:23:06.877Z,6.67
2022-12-27T10:26:18.231Z,8.00
2022-12-27T10:29:23.683Z,9.00
2022-12-27T10:32:26.936Z,7.67
2022-12-27T10:35:31.030Z,7.67
2022-12-27T10:38:35.467Z,6.50
2022-12-27T10:41:57.378Z,10.00
2022-12-27T10:45:36.575Z,7.33
2022-12-27T10:49:11.305Z,7.00
2022-12-27T10:52:19.395Z,8.00
2022-12-27T10:55:33.647Z,11.00
2022-12-27T10:58:40.935Z,7.67
2022-12-27T11:01:50.281Z,11.00
2022-12-27T11:04:58.785Z,8.67
2022-12-27T11:08:19.793Z,8.75
2022-12-27T11:11:25.313Z,8.00
2022-12-27T11:14:28.995Z,9.67
2022-12-27T11:18:07.132Z,8.00
2022-12-27T11:21:21.214Z,5.50
2022-12-27T11:24:28.622Z,8.00
2022-12-27T11:27:33.248Z,7.50
2022-12-27T11:30:39.920Z,8.75
2022-12-27T11:33:47.923Z,7.00
2022-12-27T11:36:53.980Z,8.00
2022-12-27T11:40:27.908Z,10.50
2022-12-27T11:43:38.232Z,11.33
2022-12-27T11:46:46.278Z,8.75
2022-12-27T11:49:53.945Z,9.67
2022-12-27T11:53:12.674Z,8.75
2022-12-27T11:56:20.085Z,7.00
2022-12-27T11:59:32.070Z,11.25
2022-12-27T12:02:50.311Z,8.00
2022-12-27T12:06:31.389Z,5.00
2022-12-27T12:09:42.939Z,6.33
2022-12-27T12:12:56.956Z,8.00
2022-12-27T12:16:53.337Z,7.50
2022-12-27T12:20:11.136Z,7.00
2022-12-27T12:23:33.481Z,10.00
2022-12-27T12:27:11.396Z,7.50
2022-12-27T12:30:46.139Z,11.00
2022-12-27T12:33:56.486Z,9.00
2022-12-27T12:37:14.167Z,9.33
2022-12-27T12:40:55.016Z,9.00
2022-12-27T12:44:38.095Z,10.00
2022-12-27T12:48:21.032Z,10.00
2022-12-27T12:51:52.905Z,8.00
2022-12-27T12:55:03.603Z,11.00
2022-12-27T12:58:18.461Z,11.00
2022-12-27T13:01:50.642Z,14.00
2022-12-27T13:05:24.770Z,14.67
2022-12-27T13:08:47.473Z,12.33
2022-12-27T13:12:05.668Z,11.67
2022-12-27T13:15:32.065Z,12.33
2022-12-27T13:18:39.488Z,13.67
2022-12-27T13:21:48.680Z,15.00
2022-12-27T13:25:32.153Z,18.00
2022-12-27T13:28:45.475Z,17.67
2022-12-27T13:32:40.117Z,20.00
2022-12-27T13:36:20.546Z,19.67
2022-12-27T13:39:38.367Z,20.00
2022-12-27T13:42:48.725Z,21.00
2022-12-27T13:46:09.513Z,21.00
2022-12-27T13:49:34.681Z,19.67
2022-12-27T13:52:59.803Z,20.33
2022-12-27T13:56:52.971Z,20.67
2022-12-27T14:00:17.609Z,21.33
2022-12-27T14:03:49.079Z,18.00
2022-12-27T14:07:08.106Z,14.67
2022-12-27T14:10:28.398Z,16.00
2022-12-27T14:13:36.812Z,17.67
2022-12-27T14:17:13.499Z,15.67
2022-12-27T14:20:44.865Z,18.00
2022-12-27T14:24:19.525Z,14.67
2022-12-27T14:28:04.133Z,14.67
2022-12-27T14:31:22.970Z,15.33
2022-12-27T14:34:59.302Z,14.00
2022-12-27T14:38:24.387Z,13.67
2022-12-27T14:41:48.991Z,17.00
2022-12-27T14:45:10.886Z,17.00
2022-12-27T14:48:33.576Z,16.33
2022-12-27T14:52:06.096Z,14.00
2022-12-27T14:55:24.274Z,15.33
2022-12-27T14:59:25.865Z,14.67
2022-12-27T15:02:43.349Z,14.00
2022-12-27T15:06:08.562Z,18.00
2022-12-27T15:09:26.291Z,15.33
2022-12-27T15:12:51.777Z,23.33
2022-12-27T15:16:15.588Z,17.67
2022-12-27T15:19:43.499Z,19.67
2022-12-27T15:23:26.203Z,17.00
2022-12-27T15:26:50.713Z,19.67
2022-12-27T15:30:02.475Z,18.67
2022-12-27T15:33:32.617Z,19.33
2022-12-27T15:36:44.503Z,16.00
2022-12-27T15:39:49.159Z,18.67
2022-12-27T15:43:13.125Z,19.33
2022-12-27T15:46:41.009Z,18.67
2022-12-27T15:50:20.920Z,19.00
2022-12-27T15:53:39.158Z,18.33
2022-12-27T15:57:03.386Z,16.67
2022-12-27T16:00:14.931Z,17.33
2022-12-27T16:03:36.755Z,18.33
2022-12-27T16:06:50.628Z,15.00
2022-12-27T16:09:54.000Z,17.00
2022-12-27T16:13:09.467Z,18.33
2022-12-27T16:16:39.164Z,17.33
2022-12-27T16:19:48.337Z,15.00
2022-12-27T16:22:52.592Z,15.33
2022-12-27T16:26:17.569Z,14.67
2022-12-27T16:29:23.617Z,13.00
2022-12-27T16:32:28.773Z,14.67
2022-12-27T16:35:33.116Z,15.67
2022-12-27T16:38:46.039Z,17.00
2022-12-27T16:41:57.497Z,15.33
2022-12-27T16:45:05.958Z,15.33
2022-12-27T16:48:42.226Z,13.00
2022-12-27T16:52:07.319Z,14.00
2022-12-27T16:55:15.992Z,13.00
2022-12-27T16:58:19.055Z,14.00
2022-12-27T17:01:50.840Z,16.67
2022-12-27T17:04:59.509Z,14.33
2022-12-27T17:08:02.265Z,12.33
2022-12-27T17:11:28.523Z,16.33
2022-12-27T17:14:38.725Z,14.00
2022-12-27T17:17:44.661Z,18.00
2022-12-27T17:21:02.514Z,16.33
2022-12-27T17:24:07.629Z,14.00
2022-12-27T17:27:14.188Z,13.67
2022-12-27T17:30:26.919Z,15.00
2022-12-27T17:33:47.819Z,17.00
2022-12-27T17:37:05.456Z,14.00
2022-12-27T17:40:20.199Z,15.33
2022-12-27T17:44:22.599Z,22.00
2022-12-27T17:47:43.892Z,17.00
2022-12-27T17:50:47.364Z,19.00
2022-12-27T17:54:10.658Z,16.67
2022-12-27T17:57:34.038Z,19.67
2022-12-27T18:00:44.216Z,17.67
2022-12-27T18:03:48.612Z,16.67
2022-12-27T18:06:58.598Z,17.67
2022-12-27T18:10:27.285Z,17.00
2022-12-27T18:13:36.813Z,16.00
2022-12-27T18:16:41.652Z,17.67
2022-12-27T18:19:44.830Z,17.00
2022-12-27T18:22:48.609Z,18.67
2022-12-27T18:25:55.659Z,14.00
2022-12-27T18:29:01.578Z,18.33
2022-12-27T18:32:09.432Z,14.00
2022-12-27T18:35:24.127Z,20.33
2022-12-27T18:38:33.117Z,18.67
2022-12-27T18:41:47.890Z,16.33
2022-12-27T18:45:34.150Z,19.00
2022-12-27T18:48:38.324Z,18.00
2022-12-27T18:51:44.837Z,20.33
2022-12-27T18:54:49.186Z,17.00
2022-12-27T18:58:06.715Z,15.33
2022-12-27T19:01:26.592Z,17.00
2022-12-27T19:04:32.510Z,15.33
2022-12-27T19:07:36.043Z,17.67
2022-12-27T19:10:47.901Z,16.00
2022-12-27T19:13:55.123Z,17.00
2022-12-27T19:16:59.523Z,18.33
2022-12-27T19:20:06.486Z,19.33
2022-12-27T19:23:50.141Z,14.67
2022-12-27T19:26:55.424Z,19.67
2022-12-27T19:29:58.956Z,17.00
2022-12-27T19:33:07.109Z,20.00
2022-12-27T19:36:10.765Z,19.33
2022-12-27T19:39:26.938Z,20.00
2022-12-27T19:42:32.449Z,18.33
2022-12-27T19:45:37.179Z,16.67
2022-12-27T19:48:41.357Z,14.67
2022-12-27T19:51:45.759Z,17.00
2022-12-27T19:54:50.949Z,17.00
2022-12-27T19:57:57.056Z,18.33
2022-12-27T20:01:00.560Z,15.67
2022-12-27T20:04:05.218Z,14.67
2022-12-27T20:07:16.954Z,14.00
2022-12-27T20:10:20.464Z,17.00
2022-12-27T20:13:24.530Z,11.33
2022-12-27T20:16:28.347Z,14.00
2022-12-27T20:19:31.410Z,15.67
2022-12-27T20:22:36.468Z,16.67
2022-12-27T20:25:43.936Z,16.33
2022-12-27T20:28:50.931Z,18.67
2022-12-27T20:31:53.775Z,12.00
2022-12-27T20:34:57.990Z,17.67
2022-12-27T20:38:01.050Z,18.33
2022-12-27T20:41:10.279Z,23.00
2022-12-27T20:44:15.215Z,16.67
2022-12-27T20:47:18.942Z,18.00
2022-12-27T20:50:21.776Z,16.67
2022-12-27T20:53:28.325Z,18.00
2022-12-27T20:56:31.587Z,17.67
2022-12-27T20:59:34.958Z,11.00
2022-12-27T21:02:40.467Z,18.00
2022-12-27T21:05:45.568Z,17.00
2022-12-27T21:08:55.924Z,17.33
2022-12-27T21:12:02.376Z,17.33
2022-12-27T21:15:08.738Z,14.00
2022-12-27T21:18:11.952Z,16.00
2022-12-27T21:21:19.411Z,9.67
2022-12-27T21:24:23.694Z,15.67
2022-12-27T21:27:26.582Z,14.00
2022-12-27T21:30:30.715Z,18.67
2022-12-27T21:33:35.547Z,14.67
2022-12-27T21:36:39.788Z,14.67
2022-12-27T21:39:42.522Z,11.67
2022-12-27T21:42:46.116Z,16.33
2022-12-27T21:45:48.876Z,14.00
2022-12-27T21:49:00.157Z,13.67
2022-12-27T21:52:04.056Z,16.33
2022-12-27T21:55:07.517Z,11.00
2022-12-27T21:58:10.566Z,13.00
2022-12-27T22:01:19.420Z,11.67
2022-12-27T22:04:22.235Z,15.33
2022-12-27T22:07:25.329Z,13.67
2022-12-27T22:10:27.967Z,13.33
2022-12-27T22:13:31.386Z,14.00
2022-12-27T22:16:36.770Z,8.00
2022-12-27T22:19:40.393Z,14.00
2022-12-27T22:22:43.277Z,15.33
2022-12-27T22:25:46.608Z,17.67
2022-12-27T22:28:49.987Z,14.67
2022-12-27T22:31:54.015Z,12.33
2022-12-27T22:34:56.739Z,12.33
2022-12-27T22:38:00.638Z,13.00
2022-12-27T22:41:26.673Z,11.67
2022-12-27T22:44:30.246Z,13.33
2022-12-27T22:47:33.584Z,14.67
2022-12-27T22:50:38.305Z,14.67
2022-12-27T22:53:41.280Z,13.00
2022-12-27T22:56:44.944Z,14.67
2022-12-27T22:59:47.564Z,14.00
2022-12-27T23:02:50.713Z,14.00
2022-12-27T23:06:00.664Z,13.00
2022-12-27T23:09:04.881Z,15.00
2022-12-27T23:12:07.510Z,13.67
2022-12-27T23:15:11.167Z,14.00
2022-12-27T23:18:13.894Z,14.33
2022-12-27T23:21:21.224Z,16.00
2022-12-27T23:24:26.690Z,14.67
2022-12-27T23:27:29.869Z,13.67
2022-12-27T23:30:32.681Z,16.67
2022-12-27T23:33:36.277Z,17.00
2022-12-27T23:36:39.170Z,16.00
2022-12-27T23:39:42.580Z,16.00
2022-12-27T23:42:45.465Z,14.33
2022-12-27T23:45:49.139Z,15.33
2022-12-27T23:48:52.349Z,17.33
2022-12-27T23:51:55.873Z,15.67
2022-12-27T23:54:58.885Z,18.67
2022-12-27T23:58:02.313Z,15.33
